createdAt,value
2023-05-22T00:00:35.685Z,20.48
2023-05-22T00:01:42.879Z,20.80
2023-05-22T00:02:45.075Z,20.65
2023-05-22T00:03:47.068Z,20.44
2023-05-22T00:04:48.829Z,20.45
2023-05-22T00:05:50.766Z,20.33
2023-05-22T00:06:53.170Z,20.39
2023-05-22T00:07:55.160Z,20.36
2023-05-22T00:08:57.132Z,20.33
2023-05-22T00:09:58.679Z,20.34
2023-05-22T00:11:00.254Z,20.34
2023-05-22T00:12:01.914Z,20.36
2023-05-22T00:13:03.766Z,20.37
2023-05-22T00:14:05.807Z,20.35
2023-05-22T00:15:10.005Z,20.27
2023-05-22T00:16:11.556Z,20.33
2023-05-22T00:17:15.045Z,20.30
2023-05-22T00:18:17.254Z,20.32
2023-05-22T00:19:18.864Z,20.34
2023-05-22T00:20:20.515Z,20.33
2023-05-22T00:21:22.191Z,20.36
2023-05-22T00:22:23.827Z,20.38
2023-05-22T00:23:27.917Z,20.39
2023-05-22T00:24:29.574Z,20.42
2023-05-22T00:25:31.209Z,20.39
2023-05-22T00:26:32.793Z,20.35
2023-05-22T00:27:34.344Z,20.38
2023-05-22T00:28:35.914Z,20.38
2023-05-22T00:29:37.449Z,20.38
2023-05-22T00:30:39.317Z,20.36
2023-05-22T00:31:41.019Z,20.34
2023-05-22T00:32:42.694Z,20.36
2023-05-22T00:33:44.377Z,20.32
2023-05-22T00:34:46.202Z,20.33
2023-05-22T00:35:47.968Z,20.34
2023-05-22T00:36:49.508Z,20.38
2023-05-22T00:37:51.112Z,20.40
2023-05-22T00:38:52.901Z,20.40
2023-05-22T00:39:54.434Z,20.41
2023-05-22T00:40:56.193Z,20.32
2023-05-22T00:41:57.737Z,20.39
2023-05-22T00:43:02.645Z,20.37
2023-05-22T00:44:04.328Z,20.37
2023-05-22T00:45:06.803Z,20.32
2023-05-22T00:46:08.395Z,20.34
2023-05-22T00:47:09.993Z,20.32
2023-05-22T00:48:12.777Z,20.30
2023-05-22T00:49:14.451Z,20.28
2023-05-22T00:50:16.063Z,20.24
2023-05-22T00:51:17.613Z,20.23
2023-05-22T00:52:19.295Z,20.19
2023-05-22T00:53:21.870Z,20.21
2023-05-22T00:54:23.399Z,20.23
2023-05-22T00:55:24.965Z,20.20
2023-05-22T00:56:27.065Z,20.02
2023-05-22T00:57:28.616Z,20.12
2023-05-22T00:58:30.970Z,20.11
2023-05-22T00:59:32.493Z,20.14
2023-05-22T01:00:35.539Z,20.09
2023-05-22T01:01:42.106Z,20.11
2023-05-22T01:02:44.135Z,20.06
2023-05-22T01:03:46.041Z,20.12
2023-05-22T01:04:51.000Z,20.08
2023-05-22T01:05:53.656Z,20.06
2023-05-22T01:06:55.312Z,20.05
2023-05-22T01:07:57.223Z,20.03
2023-05-22T01:08:59.008Z,20.03
2023-05-22T01:10:01.006Z,19.92
2023-05-22T01:11:08.291Z,19.96
2023-05-22T01:12:28.883Z,20.01
2023-05-22T01:13:43.409Z,19.94
2023-05-22T01:14:49.229Z,19.87
2023-05-22T01:16:22.535Z,20.04
2023-05-22T01:17:34.777Z,20.01
2023-05-22T01:19:19.462Z,19.93
2023-05-22T01:20:32.431Z,19.91
2023-05-22T01:22:03.849Z,19.99
2023-05-22T01:23:35.880Z,19.94
2023-05-22T01:25:05.361Z,19.82
2023-05-22T01:26:28.498Z,19.72
2023-05-22T01:27:43.061Z,19.69
2023-05-22T01:29:03.799Z,19.60
2023-05-22T01:30:23.004Z,19.56
2023-05-22T01:31:27.665Z,19.48
2023-05-22T01:32:29.323Z,19.52
2023-05-22T01:33:34.305Z,19.33
2023-05-22T01:34:37.220Z,19.36
2023-05-22T01:35:38.643Z,19.69
2023-05-22T01:36:40.458Z,19.49
2023-05-22T01:37:44.553Z,19.41
2023-05-22T01:38:46.229Z,19.33
2023-05-22T01:39:47.812Z,19.38
2023-05-22T01:40:49.541Z,19.38
2023-05-22T01:41:51.205Z,19.38
2023-05-22T01:42:53.085Z,19.41
2023-05-22T01:43:54.662Z,19.41
2023-05-22T01:44:56.224Z,19.38
2023-05-22T01:45:57.835Z,19.40
2023-05-22T01:47:04.964Z,19.40
2023-05-22T01:48:07.221Z,19.41
2023-05-22T01:49:09.179Z,19.43
2023-05-22T01:50:11.077Z,19.38
2023-05-22T01:51:26.250Z,19.31
2023-05-22T01:52:30.505Z,19.77
2023-05-22T01:53:42.233Z,19.52
2023-05-22T01:54:50.363Z,19.44
2023-05-22T01:55:57.356Z,19.42
2023-05-22T01:57:25.019Z,19.42
2023-05-22T01:58:29.178Z,19.46
2023-05-22T01:59:34.876Z,19.35
2023-05-22T02:00:37.573Z,19.20
2023-05-22T02:01:39.296Z,19.31
2023-05-22T02:02:43.075Z,19.26
2023-05-22T02:03:44.702Z,19.26
2023-05-22T02:04:49.679Z,19.21
2023-05-22T02:05:54.160Z,19.22
2023-05-22T02:06:55.797Z,19.22
2023-05-22T02:07:58.406Z,19.22
2023-05-22T02:09:00.111Z,19.10
2023-05-22T02:10:02.671Z,19.20
2023-05-22T02:11:04.266Z,19.20
2023-05-22T02:12:06.196Z,19.16
2023-05-22T02:13:07.819Z,19.12
2023-05-22T02:14:12.215Z,18.98
2023-05-22T02:15:14.270Z,19.04
2023-05-22T02:16:15.952Z,19.06
2023-05-22T02:17:21.988Z,19.07
2023-05-22T02:18:29.796Z,19.02
2023-05-22T02:19:31.404Z,19.05
2023-05-22T02:20:33.052Z,19.02
2023-05-22T02:21:35.006Z,18.96
2023-05-22T02:22:36.607Z,18.93
2023-05-22T02:23:38.172Z,18.87
2023-05-22T02:24:43.994Z,18.83
2023-05-22T02:25:45.618Z,18.88
2023-05-22T02:26:47.794Z,18.75
2023-05-22T02:27:52.288Z,18.78
2023-05-22T02:28:53.855Z,18.78
2023-05-22T02:29:55.430Z,18.75
2023-05-22T02:30:57.038Z,18.73
2023-05-22T02:31:58.639Z,18.70
2023-05-22T02:33:00.658Z,18.71
2023-05-22T02:34:05.335Z,18.69
2023-05-22T02:35:07.392Z,18.69
2023-05-22T02:36:11.177Z,18.70
2023-05-22T02:37:13.243Z,18.66
2023-05-22T02:38:15.154Z,18.73
2023-05-22T02:39:18.336Z,18.68
2023-05-22T02:40:19.974Z,18.28
2023-05-22T02:41:21.597Z,18.60
2023-05-22T02:42:23.146Z,18.59
2023-05-22T02:43:25.064Z,18.57
2023-05-22T02:44:26.665Z,18.47
2023-05-22T02:45:28.400Z,18.43
2023-05-22T02:46:29.966Z,18.36
2023-05-22T02:47:31.678Z,18.41
2023-05-22T02:48:33.604Z,18.42
2023-05-22T02:49:35.604Z,18.41
2023-05-22T02:50:37.278Z,18.43
2023-05-22T02:51:38.984Z,18.43
2023-05-22T02:52:40.584Z,18.42
2023-05-22T02:53:42.212Z,18.45
2023-05-22T02:54:44.362Z,18.48
2023-05-22T02:55:46.093Z,18.51
2023-05-22T02:56:47.644Z,18.48
2023-05-22T02:57:49.187Z,18.26
2023-05-22T02:58:50.824Z,18.44
2023-05-22T02:59:52.667Z,18.47
2023-05-22T03:00:54.470Z,18.43
2023-05-22T03:01:56.170Z,18.40
2023-05-22T03:02:57.890Z,18.39
2023-05-22T03:03:59.507Z,18.40
2023-05-22T03:05:01.230Z,18.28
2023-05-22T03:06:04.289Z,18.34
2023-05-22T03:07:07.277Z,18.35
2023-05-22T03:08:08.996Z,18.35
2023-05-22T03:09:10.582Z,18.29
2023-05-22T03:10:12.145Z,18.31
2023-05-22T03:11:13.743Z,18.30
2023-05-22T03:12:15.285Z,18.25
2023-05-22T03:13:16.897Z,18.28
2023-05-22T03:14:18.496Z,18.26
2023-05-22T03:15:20.055Z,18.27
2023-05-22T03:16:21.702Z,18.25
2023-05-22T03:17:23.306Z,18.28
2023-05-22T03:18:27.464Z,18.26
2023-05-22T03:19:29.578Z,18.22
2023-05-22T03:20:31.533Z,18.28
2023-05-22T03:21:33.070Z,18.21
2023-05-22T03:22:34.741Z,18.25
2023-05-22T03:23:36.294Z,18.26
2023-05-22T03:24:37.841Z,18.27
2023-05-22T03:25:39.547Z,18.07
2023-05-22T03:26:41.927Z,18.29
2023-05-22T03:27:43.790Z,18.29
2023-05-22T03:28:45.495Z,18.32
2023-05-22T03:29:47.122Z,18.24
2023-05-22T03:30:48.912Z,18.29
2023-05-22T03:31:50.672Z,18.33
2023-05-22T03:32:53.222Z,18.32
2023-05-22T03:33:54.939Z,18.26
2023-05-22T03:34:56.509Z,18.23
2023-05-22T03:35:58.099Z,18.19
2023-05-22T03:36:59.698Z,18.17
2023-05-22T03:38:01.657Z,18.16
2023-05-22T03:39:03.798Z,18.11
2023-05-22T03:40:06.049Z,18.20
2023-05-22T03:41:07.924Z,18.21
2023-05-22T03:42:09.469Z,18.18
2023-05-22T03:43:11.075Z,18.19
2023-05-22T03:44:12.621Z,18.17
2023-05-22T03:45:14.223Z,18.18
2023-05-22T03:46:15.861Z,18.16
2023-05-22T03:47:17.749Z,18.18
2023-05-22T03:48:20.542Z,18.15
2023-05-22T03:49:22.101Z,18.18
2023-05-22T03:50:23.830Z,18.18
2023-05-22T03:51:25.359Z,18.19
2023-05-22T03:52:27.220Z,18.17
2023-05-22T03:53:29.358Z,18.15
2023-05-22T03:54:31.712Z,18.11
2023-05-22T03:55:33.303Z,18.12
2023-05-22T03:56:35.027Z,17.88
2023-05-22T03:57:36.912Z,18.08
2023-05-22T03:58:38.493Z,18.03
2023-05-22T03:59:40.030Z,18.02
2023-05-22T04:00:42.540Z,18.02
2023-05-22T04:01:46.587Z,18.06
2023-05-22T04:02:50.774Z,18.11
2023-05-22T04:03:52.463Z,18.12
2023-05-22T04:04:54.087Z,18.10
2023-05-22T04:05:56.852Z,18.05
2023-05-22T04:06:59.616Z,18.13
2023-05-22T04:08:01.152Z,18.16
2023-05-22T04:09:02.791Z,18.08
2023-05-22T04:10:05.056Z,17.98
2023-05-22T04:11:06.703Z,18.06
2023-05-22T04:12:08.992Z,18.02
2023-05-22T04:13:10.779Z,17.98
2023-05-22T04:14:12.362Z,17.97
2023-05-22T04:15:13.883Z,18.00
2023-05-22T04:16:17.429Z,17.83
2023-05-22T04:17:19.517Z,17.97
2023-05-22T04:18:21.152Z,17.98
2023-05-22T04:19:22.796Z,17.76
2023-05-22T04:20:24.462Z,17.97
2023-05-22T04:21:26.215Z,17.91
2023-05-22T04:22:31.378Z,17.85
2023-05-22T04:23:32.977Z,17.95
2023-05-22T04:24:34.914Z,17.99
2023-05-22T04:25:36.627Z,17.81
2023-05-22T04:26:40.972Z,18.07
2023-05-22T04:27:44.015Z,18.12
2023-05-22T04:28:46.253Z,18.10
2023-05-22T04:29:48.187Z,18.07
2023-05-22T04:30:49.871Z,18.12
2023-05-22T04:31:54.423Z,18.04
2023-05-22T04:32:57.319Z,18.09
2023-05-22T04:34:00.272Z,18.44
2023-05-22T04:35:02.081Z,18.35
2023-05-22T04:36:04.955Z,18.24
2023-05-22T04:37:06.917Z,18.61
2023-05-22T04:38:08.450Z,18.48
2023-05-22T04:39:09.953Z,18.40
2023-05-22T04:40:12.031Z,18.38
2023-05-22T04:41:14.366Z,18.34
2023-05-22T04:42:15.971Z,18.33
2023-05-22T04:43:18.779Z,18.38
2023-05-22T04:44:23.003Z,18.41
2023-05-22T04:45:25.352Z,18.38
2023-05-22T04:46:28.662Z,18.42
2023-05-22T04:47:31.826Z,18.47
2023-05-22T04:48:33.968Z,18.50
2023-05-22T04:49:35.597Z,18.52
2023-05-22T04:50:38.862Z,18.55
2023-05-22T04:51:41.101Z,18.58
2023-05-22T04:52:42.671Z,18.63
2023-05-22T04:53:44.274Z,18.64
2023-05-22T04:54:46.768Z,18.68
2023-05-22T04:55:48.304Z,18.72
2023-05-22T04:56:51.887Z,18.72
2023-05-22T04:57:53.690Z,18.80
2023-05-22T04:58:55.818Z,18.82
2023-05-22T04:59:57.521Z,18.82
2023-05-22T05:00:59.237Z,18.87
2023-05-22T05:02:01.173Z,18.91
2023-05-22T05:03:04.000Z,18.91
2023-05-22T05:04:05.980Z,18.97
2023-05-22T05:05:08.082Z,18.96
2023-05-22T05:06:09.660Z,19.03
2023-05-22T05:07:11.595Z,19.05
2023-05-22T05:08:13.261Z,19.07
2023-05-22T05:09:14.799Z,19.15
2023-05-22T05:10:16.582Z,19.16
2023-05-22T05:11:18.145Z,19.23
2023-05-22T05:12:19.720Z,19.27
2023-05-22T05:13:21.274Z,19.29
2023-05-22T05:14:23.021Z,19.18
2023-05-22T05:15:24.621Z,19.39
2023-05-22T05:16:26.768Z,19.43
2023-05-22T05:17:28.782Z,19.44
2023-05-22T05:18:30.674Z,19.51
2023-05-22T05:19:33.618Z,19.54
2023-05-22T05:20:36.314Z,19.58
2023-05-22T05:21:39.194Z,19.56
2023-05-22T05:22:40.757Z,19.99
2023-05-22T05:23:42.486Z,19.89
2023-05-22T05:24:44.065Z,19.69
2023-05-22T05:25:45.617Z,19.80
2023-05-22T05:26:47.376Z,19.86
2023-05-22T05:27:48.982Z,19.88
2023-05-22T05:28:51.432Z,19.93
2023-05-22T05:29:53.015Z,19.97
2023-05-22T05:30:54.598Z,20.00
2023-05-22T05:31:56.489Z,20.00
2023-05-22T05:32:58.089Z,20.04
2023-05-22T05:33:59.697Z,20.08
2023-05-22T05:35:01.263Z,20.14
2023-05-22T05:36:03.128Z,20.17
2023-05-22T05:37:05.181Z,20.14
2023-05-22T05:38:06.844Z,20.23
2023-05-22T05:39:08.420Z,20.27
2023-05-22T05:40:10.395Z,20.30
2023-05-22T05:41:12.301Z,20.34
2023-05-22T05:42:13.825Z,20.40
2023-05-22T05:43:15.462Z,20.41
2023-05-22T05:44:17.015Z,20.44
2023-05-22T05:45:18.583Z,20.47
2023-05-22T05:46:20.492Z,20.48
2023-05-22T05:47:23.985Z,20.54
2023-05-22T05:48:25.809Z,20.58
2023-05-22T05:49:27.454Z,20.62
2023-05-22T05:50:29.025Z,20.67
2023-05-22T05:51:31.437Z,20.73
2023-05-22T05:52:33.521Z,20.75
2023-05-22T05:53:36.989Z,20.72
2023-05-22T05:54:39.142Z,20.85
2023-05-22T05:55:40.662Z,20.90
2023-05-22T05:56:42.590Z,20.93
2023-05-22T05:57:44.124Z,20.96
2023-05-22T05:58:45.719Z,21.01
2023-05-22T05:59:47.269Z,21.02
2023-05-22T06:00:48.835Z,21.02
2023-05-22T06:01:50.699Z,21.04
2023-05-22T06:02:52.323Z,21.12
2023-05-22T06:03:54.189Z,21.14
2023-05-22T06:04:56.009Z,21.16
2023-05-22T06:05:57.991Z,21.24
2023-05-22T06:07:01.734Z,21.25
2023-05-22T06:08:04.344Z,21.31
2023-05-22T06:09:06.587Z,21.32
2023-05-22T06:10:12.575Z,21.36
2023-05-22T06:11:14.483Z,21.39
2023-05-22T06:12:16.129Z,21.39
2023-05-22T06:13:17.760Z,21.45
2023-05-22T06:14:19.351Z,21.51
2023-05-22T06:15:21.213Z,21.54
2023-05-22T06:16:22.897Z,21.61
2023-05-22T06:17:24.531Z,21.62
2023-05-22T06:18:26.178Z,21.65
2023-05-22T06:19:27.805Z,21.68
2023-05-22T06:20:29.471Z,21.70
2023-05-22T06:21:31.480Z,21.64
2023-05-22T06:22:33.032Z,21.60
2023-05-22T06:23:34.602Z,21.79
2023-05-22T06:24:36.166Z,21.83
2023-05-22T06:25:40.081Z,21.92
2023-05-22T06:26:41.955Z,21.97
2023-05-22T06:27:43.612Z,22.02
2023-05-22T06:28:45.595Z,22.07
2023-05-22T06:29:47.233Z,22.01
2023-05-22T06:30:49.074Z,22.04
2023-05-22T06:31:50.857Z,22.12
2023-05-22T06:32:52.521Z,22.05
2023-05-22T06:33:54.278Z,22.09
2023-05-22T06:34:55.954Z,22.04
2023-05-22T06:35:57.881Z,22.08
2023-05-22T06:36:59.457Z,22.04
2023-05-22T06:38:01.023Z,22.19
2023-05-22T06:39:02.827Z,22.17
2023-05-22T06:40:06.128Z,22.22
2023-05-22T06:41:08.417Z,22.11
2023-05-22T06:42:09.966Z,22.25
2023-05-22T06:43:12.333Z,22.34
2023-05-22T06:44:13.961Z,22.45
2023-05-22T06:45:17.797Z,22.45
2023-05-22T06:46:19.711Z,22.52
2023-05-22T06:47:21.368Z,22.54
2023-05-22T06:48:23.069Z,22.54
2023-05-22T06:49:24.696Z,22.61
2023-05-22T06:50:26.581Z,22.66
2023-05-22T06:51:29.441Z,22.70
2023-05-22T06:52:31.875Z,23.07
2023-05-22T06:53:33.584Z,23.01
2023-05-22T06:54:35.311Z,22.99
2023-05-22T06:55:37.217Z,22.99
2023-05-22T06:56:38.875Z,22.94
2023-05-22T06:57:40.544Z,23.08
2023-05-22T06:58:42.224Z,22.89
2023-05-22T06:59:43.894Z,23.06
2023-05-22T07:00:45.824Z,23.17
2023-05-22T07:01:47.505Z,23.26
2023-05-22T07:02:49.489Z,23.38
2023-05-22T07:03:51.071Z,23.47
2023-05-22T07:04:53.643Z,23.62
2023-05-22T07:05:57.903Z,23.64
2023-05-22T07:06:59.529Z,23.67
2023-05-22T07:08:01.621Z,23.73
2023-05-22T07:09:03.389Z,23.79
2023-05-22T07:10:05.404Z,23.75
2023-05-22T07:11:07.733Z,23.70
2023-05-22T07:12:09.598Z,23.94
2023-05-22T07:13:11.344Z,23.96
2023-05-22T07:14:13.027Z,24.06
2023-05-22T07:15:15.016Z,23.97
2023-05-22T07:16:16.602Z,24.18
2023-05-22T07:17:18.826Z,24.22
2023-05-22T07:18:20.424Z,24.17
2023-05-22T07:19:22.017Z,24.26
2023-05-22T07:20:25.888Z,24.11
2023-05-22T07:21:27.455Z,24.21
2023-05-22T07:22:29.131Z,24.20
2023-05-22T07:23:30.649Z,24.23
2023-05-22T07:24:32.525Z,24.29
2023-05-22T07:25:34.477Z,24.38
2023-05-22T07:26:36.564Z,24.45
2023-05-22T07:27:38.152Z,24.56
2023-05-22T07:28:39.682Z,24.68
2023-05-22T07:29:41.449Z,24.62
2023-05-22T07:30:43.368Z,24.71
2023-05-22T07:31:45.004Z,24.85
2023-05-22T07:32:47.164Z,24.86
2023-05-22T07:33:48.967Z,24.89
2023-05-22T07:34:50.539Z,24.97
2023-05-22T07:35:52.568Z,25.09
2023-05-22T07:36:54.152Z,25.14
2023-05-22T07:37:55.898Z,25.22
2023-05-22T07:38:57.925Z,25.29
2023-05-22T07:39:59.547Z,25.21
2023-05-22T07:41:02.906Z,25.34
2023-05-22T07:42:05.046Z,25.50
2023-05-22T07:43:06.663Z,25.54
2023-05-22T07:44:08.342Z,25.58
2023-05-22T07:45:10.932Z,25.64
2023-05-22T07:46:12.572Z,25.74
2023-05-22T07:47:14.407Z,25.74
2023-05-22T07:48:16.150Z,25.70
2023-05-22T07:49:20.271Z,25.64
2023-05-22T07:50:22.412Z,25.75
2023-05-22T07:51:24.082Z,25.73
2023-05-22T07:52:25.985Z,25.86
2023-05-22T07:53:27.587Z,25.87
2023-05-22T07:54:29.238Z,25.88
2023-05-22T07:55:31.511Z,25.95
2023-05-22T07:56:33.251Z,25.92
2023-05-22T07:57:36.194Z,25.87
2023-05-22T07:58:40.114Z,25.87
2023-05-22T07:59:44.266Z,25.81
2023-05-22T08:00:46.419Z,25.86
2023-05-22T08:01:48.171Z,25.89
2023-05-22T08:02:49.977Z,25.93
2023-05-22T08:03:52.107Z,26.09
2023-05-22T08:04:55.841Z,26.22
2023-05-22T08:06:00.425Z,26.26
2023-05-22T08:07:02.657Z,26.25
2023-05-22T08:08:04.902Z,26.31
2023-05-22T08:09:06.585Z,26.37
2023-05-22T08:10:14.242Z,26.42
2023-05-22T08:11:15.902Z,26.54
2023-05-22T08:12:17.516Z,26.58
2023-05-22T08:13:19.391Z,26.67
2023-05-22T08:14:21.812Z,26.74
2023-05-22T08:15:23.454Z,26.80
2023-05-22T08:16:25.402Z,26.78
2023-05-22T08:17:27.198Z,26.78
2023-05-22T08:18:29.910Z,26.84
2023-05-22T08:19:32.519Z,26.91
2023-05-22T08:20:34.229Z,26.98
2023-05-22T08:21:35.986Z,26.77
2023-05-22T08:22:38.884Z,27.06
2023-05-22T08:23:40.479Z,27.08
2023-05-22T08:24:42.027Z,27.12
2023-05-22T08:25:43.929Z,27.14
2023-05-22T08:26:45.618Z,27.16
2023-05-22T08:27:47.220Z,27.20
2023-05-22T08:28:48.807Z,27.27
2023-05-22T08:29:50.443Z,27.31
2023-05-22T08:30:52.130Z,27.36
2023-05-22T08:31:56.908Z,27.44
2023-05-22T08:32:58.669Z,27.47
2023-05-22T08:34:03.036Z,27.37
2023-05-22T08:35:05.247Z,27.43
2023-05-22T08:36:07.013Z,27.45
2023-05-22T08:37:09.512Z,27.40
2023-05-22T08:38:11.345Z,27.38
2023-05-22T08:39:13.094Z,27.41
2023-05-22T08:40:14.986Z,27.45
2023-05-22T08:41:16.641Z,27.57
2023-05-22T08:42:18.247Z,27.64
2023-05-22T08:43:20.238Z,27.65
2023-05-22T08:44:22.067Z,27.57
2023-05-22T08:45:26.061Z,27.73
2023-05-22T08:46:29.245Z,27.75
2023-05-22T08:47:33.029Z,27.80
2023-05-22T08:48:34.734Z,27.83
2023-05-22T08:49:36.391Z,27.84
2023-05-22T08:50:42.155Z,27.72
2023-05-22T08:51:44.920Z,27.81
2023-05-22T08:52:52.691Z,27.82
2023-05-22T08:53:56.376Z,27.78
2023-05-22T08:54:58.042Z,27.82
2023-05-22T08:55:59.651Z,27.79
2023-05-22T08:57:01.284Z,27.84
2023-05-22T08:58:02.839Z,27.89
2023-05-22T08:59:05.059Z,27.72
2023-05-22T09:00:07.880Z,27.76
2023-05-22T09:01:09.660Z,27.75
2023-05-22T09:02:11.354Z,27.71
2023-05-22T09:03:14.806Z,27.75
2023-05-22T09:04:16.820Z,27.74
2023-05-22T09:05:18.477Z,27.85
2023-05-22T09:06:20.035Z,27.73
2023-05-22T09:07:22.244Z,27.71
2023-05-22T09:08:24.196Z,27.48
2023-05-22T09:09:26.158Z,27.61
2023-05-22T09:10:27.967Z,27.66
2023-05-22T09:11:29.583Z,27.67
2023-05-22T09:12:32.040Z,27.66
2023-05-22T09:13:33.803Z,27.56
2023-05-22T09:14:42.297Z,27.62
2023-05-22T09:15:43.943Z,27.68
2023-05-22T09:16:49.997Z,27.54
2023-05-22T09:17:51.628Z,27.62
2023-05-22T09:18:53.568Z,27.59
2023-05-22T09:19:55.149Z,27.52
2023-05-22T09:21:00.086Z,27.52
2023-05-22T09:22:04.090Z,27.52
2023-05-22T09:23:14.397Z,27.52
2023-05-22T09:24:16.072Z,27.72
2023-05-22T09:25:18.998Z,27.47
2023-05-22T09:26:21.067Z,27.64
2023-05-22T09:27:23.111Z,27.62
2023-05-22T09:28:25.117Z,27.63
2023-05-22T09:29:26.707Z,27.64
2023-05-22T09:30:28.273Z,27.65
2023-05-22T09:31:30.104Z,27.65
2023-05-22T09:32:31.924Z,27.61
2023-05-22T09:33:33.570Z,27.65
2023-05-22T09:34:35.575Z,27.63
2023-05-22T09:35:39.144Z,27.57
2023-05-22T09:36:41.346Z,27.42
2023-05-22T09:37:42.903Z,27.47
2023-05-22T09:38:44.462Z,27.51
2023-05-22T09:39:47.376Z,27.60
2023-05-22T09:40:52.667Z,27.54
2023-05-22T09:41:54.218Z,27.54
2023-05-22T09:42:55.831Z,27.56
2023-05-22T09:43:58.336Z,27.65
2023-05-22T09:45:05.691Z,27.64
2023-05-22T09:46:07.303Z,27.70
2023-05-22T09:47:10.068Z,27.60
2023-05-22T09:48:12.720Z,27.99
2023-05-22T09:49:16.552Z,27.86
2023-05-22T09:50:19.100Z,27.77
2023-05-22T09:51:22.400Z,27.70
2023-05-22T09:52:24.193Z,27.73
2023-05-22T09:53:28.499Z,27.86
2023-05-22T09:54:32.152Z,27.81
2023-05-22T09:55:33.895Z,27.83
2023-05-22T09:56:40.176Z,27.95
2023-05-22T09:57:46.421Z,27.84
2023-05-22T09:58:48.162Z,27.81
2023-05-22T09:59:54.513Z,27.85
2023-05-22T10:00:56.374Z,27.84
2023-05-22T10:01:58.078Z,27.84
2023-05-22T10:03:04.158Z,28.00
2023-05-22T10:04:06.231Z,28.18
2023-05-22T10:05:10.927Z,28.24
2023-05-22T10:06:13.199Z,28.28
2023-05-22T10:07:14.831Z,28.30
2023-05-22T10:08:21.808Z,28.40
2023-05-22T10:09:25.184Z,28.49
2023-05-22T10:10:26.943Z,28.57
2023-05-22T10:11:29.342Z,28.57
2023-05-22T10:12:33.185Z,28.63
2023-05-22T10:13:35.872Z,28.70
2023-05-22T10:14:37.477Z,28.70
2023-05-22T10:15:39.196Z,28.77
2023-05-22T10:16:41.513Z,28.82
2023-05-22T10:17:43.314Z,28.83
2023-05-22T10:18:46.338Z,28.92
2023-05-22T10:19:48.264Z,29.02
2023-05-22T10:20:50.138Z,29.09
2023-05-22T10:21:51.764Z,29.19
2023-05-22T10:22:53.679Z,29.16
2023-05-22T10:23:55.276Z,29.16
2023-05-22T10:24:56.919Z,29.15
2023-05-22T10:25:58.581Z,29.23
2023-05-22T10:27:02.018Z,29.09
2023-05-22T10:28:03.839Z,29.14
2023-05-22T10:29:11.238Z,29.25
2023-05-22T10:30:28.426Z,29.23
2023-05-22T10:31:53.851Z,29.44
2023-05-22T10:33:03.253Z,29.37
2023-05-22T10:34:06.919Z,29.25
2023-05-22T10:35:21.584Z,29.17
2023-05-22T10:36:29.980Z,29.30
2023-05-22T10:37:39.634Z,29.41
2023-05-22T10:38:57.026Z,29.49
2023-05-22T10:40:07.593Z,29.52
2023-05-22T10:41:09.351Z,29.56
2023-05-22T10:42:13.813Z,29.60
2023-05-22T10:43:15.377Z,29.71
2023-05-22T10:44:18.181Z,29.64
2023-05-22T10:45:19.600Z,29.97
2023-05-22T10:46:21.311Z,29.87
2023-05-22T10:47:22.992Z,29.54
2023-05-22T10:48:25.967Z,29.67
2023-05-22T10:49:28.464Z,29.81
2023-05-22T10:50:30.104Z,29.83
2023-05-22T10:51:31.738Z,29.93
2023-05-22T10:52:33.356Z,29.92
2023-05-22T10:53:35.395Z,29.72
2023-05-22T10:54:41.177Z,29.70
2023-05-22T10:55:52.862Z,29.76
2023-05-22T10:57:09.311Z,29.73
2023-05-22T10:58:13.731Z,29.81
2023-05-22T10:59:15.389Z,29.83
2023-05-22T11:00:19.257Z,29.89
2023-05-22T11:01:21.397Z,29.99
2023-05-22T11:02:31.228Z,29.92
2023-05-22T11:03:54.626Z,29.97
2023-05-22T11:04:56.247Z,30.01
2023-05-22T11:05:57.844Z,29.98
2023-05-22T11:07:04.387Z,30.02
2023-05-22T11:08:32.575Z,30.04
2023-05-22T11:09:45.127Z,30.19
2023-05-22T11:10:56.759Z,30.15
2023-05-22T11:12:31.107Z,30.15
2023-05-22T11:13:34.441Z,30.09
2023-05-22T11:14:36.683Z,30.03
2023-05-22T11:15:43.821Z,29.97
2023-05-22T11:16:45.627Z,30.05
2023-05-22T11:17:51.701Z,30.08
2023-05-22T11:19:22.631Z,30.06
2023-05-22T11:20:25.848Z,30.06
2023-05-22T11:21:29.409Z,30.02
2023-05-22T11:22:37.770Z,30.03
2023-05-22T11:23:39.674Z,30.15
2023-05-22T11:24:41.365Z,30.14
2023-05-22T11:25:42.954Z,29.98
2023-05-22T11:26:44.585Z,29.79
2023-05-22T11:27:47.370Z,29.89
2023-05-22T11:28:49.178Z,30.20
2023-05-22T11:29:51.590Z,30.12
2023-05-22T11:30:53.261Z,30.03
2023-05-22T11:31:55.005Z,29.98
2023-05-22T11:32:58.019Z,29.97
2023-05-22T11:34:00.239Z,29.95
2023-05-22T11:35:01.868Z,29.96
2023-05-22T11:36:03.526Z,29.98
2023-05-22T11:37:05.403Z,29.96
2023-05-22T11:38:08.254Z,30.01
2023-05-22T11:39:10.317Z,30.05
2023-05-22T11:40:15.236Z,30.12
2023-05-22T11:41:17.194Z,30.13
2023-05-22T11:42:20.155Z,30.14
2023-05-22T11:43:34.035Z,30.20
2023-05-22T11:44:35.616Z,30.23
2023-05-22T11:45:38.175Z,30.11
2023-05-22T11:46:40.015Z,30.20
2023-05-22T11:47:42.557Z,30.27
2023-05-22T11:48:44.267Z,30.34
2023-05-22T11:49:45.930Z,30.37
2023-05-22T11:50:47.686Z,30.38
2023-05-22T11:51:49.719Z,30.44
2023-05-22T11:52:51.320Z,30.51
2023-05-22T11:53:53.387Z,30.58
2023-05-22T11:54:54.954Z,30.66
2023-05-22T11:55:56.605Z,30.65
2023-05-22T11:56:58.419Z,30.65
2023-05-22T11:58:02.574Z,30.59
2023-05-22T11:59:04.202Z,30.58
2023-05-22T12:00:08.304Z,30.65
2023-05-22T12:01:10.209Z,30.63
2023-05-22T12:02:11.907Z,30.69
2023-05-22T12:03:14.123Z,30.77
2023-05-22T12:04:16.141Z,30.81
2023-05-22T12:05:20.387Z,30.86
2023-05-22T12:06:22.033Z,30.87
2023-05-22T12:07:24.563Z,30.85
2023-05-22T12:08:26.693Z,30.96
2023-05-22T12:09:28.279Z,30.98
2023-05-22T12:10:29.861Z,31.05
2023-05-22T12:11:35.042Z,31.09
2023-05-22T12:12:37.334Z,30.96
2023-05-22T12:13:39.495Z,31.01
2023-05-22T12:14:44.241Z,31.04
2023-05-22T12:15:46.413Z,31.20
2023-05-22T12:16:52.063Z,31.21
2023-05-22T12:17:56.788Z,31.03
2023-05-22T12:18:58.578Z,31.16
2023-05-22T12:20:00.256Z,31.30
2023-05-22T12:21:01.898Z,31.28
2023-05-22T12:22:04.643Z,31.38
2023-05-22T12:23:06.180Z,31.43
2023-05-22T12:24:08.165Z,31.37
2023-05-22T12:25:20.062Z,31.29
2023-05-22T12:26:21.888Z,31.39
2023-05-22T12:27:23.435Z,31.41
2023-05-22T12:28:25.068Z,31.39
2023-05-22T12:29:26.686Z,31.55
2023-05-22T12:30:28.355Z,31.59
2023-05-22T12:31:35.880Z,31.71
2023-05-22T12:32:37.794Z,31.78
2023-05-22T12:33:40.290Z,31.89
2023-05-22T12:34:46.044Z,31.93
2023-05-22T12:35:51.060Z,31.97
2023-05-22T12:36:53.190Z,32.02
2023-05-22T12:37:54.855Z,31.96
2023-05-22T12:38:58.048Z,31.80
2023-05-22T12:40:00.976Z,31.76
2023-05-22T12:41:03.088Z,31.66
2023-05-22T12:42:04.796Z,31.50
2023-05-22T12:43:06.371Z,31.41
2023-05-22T12:44:08.561Z,31.31
2023-05-22T12:45:11.496Z,31.24
2023-05-22T12:46:13.668Z,31.19
2023-05-22T12:47:15.341Z,31.11
2023-05-22T12:48:17.242Z,31.06
2023-05-22T12:49:18.967Z,30.94
2023-05-22T12:50:20.648Z,30.81
2023-05-22T12:51:24.064Z,30.62
2023-05-22T12:52:25.667Z,30.65
2023-05-22T12:53:27.372Z,30.59
2023-05-22T12:54:28.996Z,30.56
2023-05-22T12:55:31.196Z,30.53
2023-05-22T12:56:32.780Z,30.50
2023-05-22T12:57:34.361Z,30.46
2023-05-22T12:58:35.983Z,30.43
2023-05-22T12:59:37.970Z,30.39
2023-05-22T13:00:39.786Z,30.17
2023-05-22T13:01:41.608Z,30.13
2023-05-22T13:02:43.312Z,30.02
2023-05-22T13:03:46.632Z,30.06
2023-05-22T13:04:48.284Z,30.08
2023-05-22T13:05:50.281Z,30.04
2023-05-22T13:06:51.852Z,30.05
2023-05-22T13:07:55.950Z,30.02
2023-05-22T13:08:57.776Z,30.01
2023-05-22T13:09:59.412Z,29.99
2023-05-22T13:11:00.988Z,30.02
2023-05-22T13:12:02.674Z,30.08
2023-05-22T13:13:04.448Z,30.15
2023-05-22T13:14:06.026Z,30.15
2023-05-22T13:15:08.255Z,30.07
2023-05-22T13:16:10.783Z,30.12
2023-05-22T13:17:12.526Z,30.08
2023-05-22T13:18:14.133Z,30.03
2023-05-22T13:19:15.973Z,30.01
2023-05-22T13:20:17.737Z,30.10
2023-05-22T13:21:19.347Z,30.09
2023-05-22T13:22:21.149Z,30.18
2023-05-22T13:23:23.286Z,30.22
2023-05-22T13:24:24.888Z,30.22
2023-05-22T13:25:26.496Z,30.21
2023-05-22T13:26:28.133Z,30.16
2023-05-22T13:27:31.904Z,30.11
2023-05-22T13:28:35.495Z,30.15
2023-05-22T13:29:37.156Z,30.38
2023-05-22T13:30:39.180Z,30.45
2023-05-22T13:31:41.490Z,30.32
2023-05-22T13:32:43.112Z,30.61